Tarazona, Spain
Current Conditions -  °F | °C
As of 2:00 AM on Tuesday 21 Oct 2014 (Local Time) from LEZG Reporting Station
Clear Clear  
Wind Chill: 63°   Ceiling: Unl
Heat Index: 63°   Visibility: 6mi
Dew Point: 52°   Wind: 8mph
Humidity: 68%   Direction: 290°WNW
Pressure: 30.18"   Gusts: NA
Location:  41.9°N, 1.73°W
Report Text: LEZG 210000Z 29007KT CAVOK 17/11 Q1022
Loading
Personal Weather Stations






























Interactive Weather Map
Tropical Storm Tracking
New forecast layout! Learn more

10-Day Weather Forecast

Advertisements
Track Severe Weather on mobile